Terminal Aerodrome Forecast
Issued by NWS

Home | Current Version | Previous Version | Graphics & Text | Print | Product List | Glossary On
Versions: 1 2 3 4 5 6 7 8 9 10 11 12
000
FTUS45 KGGW 131125
TAFOLF
TAF
KOLF 131125Z 1312/1412 09005KT P6SM SKC
     FM131500 VRB03KT P6SM BKN060
     FM131800 VRB05KT P6SM OVC040
     FM132200 25006KT P6SM OVC040
     FM140500 25006KT P6SM SCT070
     FM140900 26008KT P6SM BKN030 WS020/31035KT=

USA.gov is the U.S. government's official web portal to all federal, state and local government web resources and services.